createdAt,value
2023-01-25T00:00:50.777Z,97.52
2023-01-25T00:01:50.800Z,97.62
2023-01-25T00:02:50.867Z,97.72
2023-01-25T00:03:50.752Z,97.72
2023-01-25T00:04:50.721Z,97.83
2023-01-25T00:05:50.742Z,97.83
2023-01-25T00:06:50.710Z,97.94
2023-01-25T00:07:50.722Z,98.04
2023-01-25T00:08:50.683Z,98.14
2023-01-25T00:09:50.695Z,98.10
2023-01-25T00:10:50.662Z,97.99
2023-01-25T00:11:50.679Z,97.83
2023-01-25T00:12:50.660Z,97.83
2023-01-25T00:13:50.795Z,97.83
2023-01-25T00:14:50.774Z,97.94
2023-01-25T00:15:50.622Z,97.94
2023-01-25T00:16:50.726Z,98.04
2023-01-25T00:17:50.590Z,98.14
2023-01-25T00:18:50.605Z,98.35
2023-01-25T00:19:50.582Z,98.35
2023-01-25T00:20:50.566Z,98.25
2023-01-25T00:21:50.565Z,98.04
2023-01-25T00:22:50.538Z,97.83
2023-01-25T00:23:50.636Z,97.83
2023-01-25T00:24:50.506Z,97.83
2023-01-25T00:25:50.511Z,97.83
2023-01-25T00:26:50.489Z,97.94
2023-01-25T00:27:50.493Z,97.94
2023-01-25T00:28:50.470Z,98.04
2023-01-25T00:29:50.574Z,98.04
2023-01-25T00:30:50.438Z,98.14
2023-01-25T00:31:50.574Z,98.14
2023-01-25T00:32:50.524Z,98.14
2023-01-25T00:33:50.422Z,98.14
2023-01-25T00:34:50.442Z,98.25
2023-01-25T00:35:50.399Z,98.04
2023-01-25T00:36:50.399Z,98.04
2023-01-25T00:37:50.378Z,97.94
2023-01-25T00:38:50.359Z,97.94
2023-01-25T00:39:50.371Z,97.94
2023-01-25T00:40:50.339Z,97.94
2023-01-25T00:41:50.322Z,98.14
2023-01-25T00:42:50.371Z,98.35
2023-01-25T00:43:50.298Z,98.56
2023-01-25T00:44:50.297Z,98.67
2023-01-25T00:45:50.362Z,98.77
2023-01-25T00:46:50.278Z,98.67
2023-01-25T00:47:50.248Z,98.77
2023-01-25T00:48:50.254Z,98.77
2023-01-25T00:49:50.246Z,98.88
2023-01-25T00:50:50.239Z,98.98
2023-01-25T00:51:50.219Z,99.19
2023-01-25T00:52:50.210Z,99.19
2023-01-25T00:53:50.184Z,99.29
2023-01-25T00:54:50.183Z,99.40
2023-01-25T00:55:50.176Z,99.40
2023-01-25T00:56:50.159Z,99.51
2023-01-25T00:57:50.139Z,99.51
2023-01-25T00:58:50.141Z,99.61
2023-01-25T00:59:50.132Z,99.71
2023-01-25T01:00:50.146Z,99.61
2023-01-25T01:01:50.108Z,99.71
2023-01-25T01:02:50.478Z,99.71
2023-01-25T01:03:50.072Z,99.71
2023-01-25T01:04:50.190Z,99.82
2023-01-25T01:05:50.067Z,99.92
2023-01-25T01:06:50.044Z,99.92
2023-01-25T01:07:50.030Z,99.99
2023-01-25T01:08:50.027Z,99.99
2023-01-25T01:09:50.000Z,99.99
2023-01-25T01:10:50.023Z,99.99
2023-01-25T01:11:49.986Z,99.99
2023-01-25T01:12:50.004Z,99.99
2023-01-25T01:13:49.967Z,99.99
2023-01-25T01:14:49.990Z,99.92
2023-01-25T01:15:49.965Z,99.92
2023-01-25T01:16:49.999Z,99.92
2023-01-25T01:17:49.918Z,99.99
2023-01-25T01:18:49.914Z,99.99
2023-01-25T01:19:49.896Z,99.99
2023-01-25T01:20:49.907Z,99.99
2023-01-25T01:21:49.900Z,99.99
2023-01-25T01:22:49.894Z,99.99
2023-01-25T01:23:49.953Z,99.99
2023-01-25T01:24:49.856Z,99.99
2023-01-25T01:25:49.855Z,99.99
2023-01-25T01:26:49.830Z,99.99
2023-01-25T01:27:49.796Z,99.99
2023-01-25T01:28:49.811Z,99.99
2023-01-25T01:29:49.785Z,99.99
2023-01-25T01:30:49.816Z,99.99
2023-01-25T01:31:50.024Z,99.99
2023-01-25T01:32:49.896Z,99.99
2023-01-25T01:33:49.746Z,99.99
2023-01-25T01:34:49.747Z,99.99
2023-01-25T01:35:49.710Z,99.99
2023-01-25T01:36:49.748Z,99.99
2023-01-25T01:37:49.695Z,99.99
2023-01-25T01:38:49.708Z,99.99
2023-01-25T01:39:49.677Z,99.99
2023-01-25T01:40:49.676Z,99.99
2023-01-25T01:41:49.647Z,99.99
2023-01-25T01:42:49.683Z,99.99
2023-01-25T01:43:49.675Z,99.99
2023-01-25T01:44:49.652Z,99.99
2023-01-25T01:45:49.663Z,99.99
2023-01-25T01:46:49.699Z,99.99
2023-01-25T01:47:49.600Z,99.99
2023-01-25T01:48:49.588Z,99.99
2023-01-25T01:49:49.556Z,99.99
2023-01-25T01:50:49.584Z,99.99
2023-01-25T01:51:49.544Z,99.99
2023-01-25T01:52:49.566Z,99.99
2023-01-25T01:53:49.512Z,99.99
2023-01-25T01:54:49.516Z,99.99
2023-01-25T01:55:49.484Z,99.99
2023-01-25T01:56:49.495Z,99.99
2023-01-25T01:57:49.504Z,99.99
2023-01-25T01:58:49.480Z,99.99
2023-01-25T01:59:49.465Z,99.99
2023-01-25T02:00:49.446Z,99.99
2023-01-25T02:01:49.427Z,99.99
2023-01-25T02:02:49.513Z,99.99
2023-01-25T02:03:49.422Z,99.99
2023-01-25T02:04:49.418Z,99.99
2023-01-25T02:05:49.387Z,99.99
2023-01-25T02:06:49.384Z,99.99
2023-01-25T02:07:49.358Z,99.99
2023-01-25T02:08:49.364Z,99.99
2023-01-25T02:09:49.335Z,99.99
2023-01-25T02:10:49.335Z,99.99
2023-01-25T02:11:49.316Z,99.99
2023-01-25T02:12:49.332Z,99.99
2023-01-25T02:13:49.291Z,99.99
2023-01-25T02:14:49.306Z,99.99
2023-01-25T02:15:49.324Z,99.99
2023-01-25T02:16:49.267Z,99.99
2023-01-25T02:17:49.257Z,99.99
2023-01-25T02:18:49.268Z,99.99
2023-01-25T02:19:49.224Z,99.99
2023-01-25T02:20:49.211Z,99.99
2023-01-25T02:21:49.200Z,99.99
2023-01-25T02:22:49.243Z,99.99
2023-01-25T02:23:49.212Z,99.99
2023-01-25T02:24:49.172Z,99.99
2023-01-25T02:25:49.159Z,99.99
2023-01-25T02:26:49.161Z,99.99
2023-01-25T02:27:49.164Z,99.99
2023-01-25T02:28:49.140Z,99.99
2023-01-25T02:29:49.113Z,99.99
2023-01-25T02:30:49.177Z,99.99
2023-01-25T02:31:49.218Z,99.99
2023-01-25T02:32:49.092Z,99.99
2023-01-25T02:33:49.085Z,99.99
2023-01-25T02:34:49.076Z,99.99
2023-01-25T02:35:49.057Z,99.99
2023-01-25T02:36:49.265Z,99.99
2023-01-25T02:37:49.028Z,99.99
2023-01-25T02:38:49.144Z,99.99
2023-01-25T02:39:49.016Z,99.99
2023-01-25T02:40:49.005Z,99.99
2023-01-25T02:41:48.980Z,99.99
2023-01-25T02:42:49.092Z,99.99
2023-01-25T02:43:48.965Z,99.99
2023-01-25T02:44:48.972Z,99.99
2023-01-25T02:45:49.016Z,99.99
2023-01-25T02:46:48.960Z,99.99
2023-01-25T02:47:48.917Z,99.99
2023-01-25T02:48:48.940Z,99.99
2023-01-25T02:49:49.340Z,99.99
2023-01-25T02:50:48.897Z,99.99
2023-01-25T02:51:48.878Z,99.99
2023-01-25T02:52:48.890Z,99.99
2023-01-25T02:53:48.876Z,99.99
2023-01-25T02:54:48.872Z,99.99
2023-01-25T02:55:48.834Z,99.99
2023-01-25T02:56:48.835Z,99.99
2023-01-25T02:57:48.801Z,99.99
2023-01-25T02:58:48.801Z,99.99
2023-01-25T02:59:48.793Z,99.99
2023-01-25T03:00:48.784Z,99.99
2023-01-25T03:01:48.840Z,99.99
2023-01-25T03:02:49.489Z,99.99
2023-01-25T03:03:48.741Z,99.99
2023-01-25T03:04:48.741Z,99.99
2023-01-25T03:05:48.736Z,99.99
2023-01-25T03:06:48.712Z,99.99
2023-01-25T03:07:48.731Z,99.99
2023-01-25T03:08:48.693Z,99.99
2023-01-25T03:09:48.678Z,99.99
2023-01-25T03:10:48.686Z,99.99
2023-01-25T03:11:48.912Z,99.99
2023-01-25T03:12:48.652Z,99.99
2023-01-25T03:13:48.633Z,99.99
2023-01-25T03:14:48.616Z,99.99
2023-01-25T03:15:48.637Z,99.99
2023-01-25T03:16:48.611Z,99.99
2023-01-25T03:17:48.587Z,99.99
2023-01-25T03:18:48.589Z,99.99
2023-01-25T03:19:48.561Z,99.99
2023-01-25T03:20:48.583Z,99.99
2023-01-25T03:21:48.543Z,99.99
2023-01-25T03:22:48.590Z,99.99
2023-01-25T03:23:48.555Z,99.99
2023-01-25T03:24:48.508Z,99.99
2023-01-25T03:25:48.503Z,99.99
2023-01-25T03:26:48.490Z,99.99
2023-01-25T03:27:48.569Z,99.99
2023-01-25T03:28:48.483Z,99.99
2023-01-25T03:29:48.591Z,99.99
2023-01-25T03:30:48.441Z,99.99
2023-01-25T03:31:48.531Z,99.99
2023-01-25T03:32:48.454Z,99.99
2023-01-25T03:33:48.430Z,99.99
2023-01-25T03:34:48.412Z,99.99
2023-01-25T03:35:48.423Z,99.99
2023-01-25T03:36:48.385Z,99.99
2023-01-25T03:37:48.389Z,99.99
2023-01-25T03:38:48.358Z,99.99
2023-01-25T03:39:48.358Z,99.99
2023-01-25T03:40:48.330Z,99.99
2023-01-25T03:41:48.328Z,99.99
2023-01-25T03:42:48.310Z,99.99
2023-01-25T03:43:48.314Z,99.99
2023-01-25T03:44:48.279Z,99.99
2023-01-25T03:45:48.272Z,99.99
2023-01-25T03:46:48.344Z,99.99
2023-01-25T03:47:48.254Z,99.99
2023-01-25T03:48:48.250Z,99.99
2023-01-25T03:49:48.220Z,99.99
2023-01-25T03:50:48.218Z,99.99
2023-01-25T03:51:48.211Z,99.99
2023-01-25T03:52:48.226Z,99.99
2023-01-25T03:53:48.191Z,99.99
2023-01-25T03:54:48.206Z,99.99
2023-01-25T03:55:49.714Z,99.99
2023-01-25T03:56:48.152Z,99.99
2023-01-25T03:57:48.138Z,99.99
2023-01-25T03:58:48.141Z,99.99
2023-01-25T03:59:48.126Z,99.99
2023-01-25T04:00:48.317Z,99.99
2023-01-25T04:01:48.091Z,99.99
2023-01-25T04:02:48.200Z,99.99
2023-01-25T04:03:48.070Z,99.99
2023-01-25T04:04:48.074Z,99.99
2023-01-25T04:05:48.053Z,99.99
2023-01-25T04:06:48.064Z,99.99
2023-01-25T04:07:48.020Z,99.99
2023-01-25T04:08:48.024Z,99.99
2023-01-25T04:09:48.039Z,99.99
2023-01-25T04:10:48.004Z,99.99
2023-01-25T04:11:48.047Z,99.99
2023-01-25T04:12:47.974Z,99.99
2023-01-25T04:13:47.970Z,99.99
2023-01-25T04:14:47.947Z,99.99
2023-01-25T04:15:47.933Z,99.99
2023-01-25T04:16:47.985Z,99.99
2023-01-25T04:17:47.939Z,99.99
2023-01-25T04:18:47.906Z,99.99
2023-01-25T04:19:47.892Z,99.99
2023-01-25T04:20:47.892Z,99.99
2023-01-25T04:21:47.859Z,99.99
2023-01-25T04:22:47.903Z,99.99
2023-01-25T04:23:47.879Z,99.99
2023-01-25T04:24:47.849Z,99.99
2023-01-25T04:25:47.814Z,99.99
2023-01-25T04:26:47.843Z,99.99
2023-01-25T04:27:47.808Z,99.99
2023-01-25T04:28:47.818Z,99.99
2023-01-25T04:29:47.777Z,99.99
2023-01-25T04:30:47.779Z,99.99
2023-01-25T04:31:48.602Z,99.99
2023-01-25T04:32:47.887Z,99.99
2023-01-25T04:33:48.663Z,99.99
2023-01-25T04:34:47.752Z,99.99
2023-01-25T04:35:47.708Z,99.99
2023-01-25T04:36:47.718Z,99.99
2023-01-25T04:37:47.699Z,99.99
2023-01-25T04:38:47.691Z,99.99
2023-01-25T04:39:47.697Z,99.99
2023-01-25T04:40:47.676Z,99.99
2023-01-25T04:41:47.648Z,99.99
2023-01-25T04:42:47.660Z,99.99
2023-01-25T04:43:47.884Z,99.99
2023-01-25T04:44:47.610Z,99.99
2023-01-25T04:45:47.645Z,99.99
2023-01-25T04:46:47.613Z,99.99
2023-01-25T04:47:47.576Z,99.99
2023-01-25T04:48:47.591Z,99.99
2023-01-25T04:49:47.562Z,99.99
2023-01-25T04:50:47.569Z,99.99
2023-01-25T04:51:47.720Z,99.99
2023-01-25T04:52:47.524Z,99.99
2023-01-25T04:53:47.530Z,99.99
2023-01-25T04:54:47.505Z,99.99
2023-01-25T04:55:47.525Z,99.99
2023-01-25T04:56:47.484Z,99.99
2023-01-25T04:57:47.477Z,99.99
2023-01-25T04:58:47.495Z,99.99
2023-01-25T04:59:47.479Z,99.99
2023-01-25T05:00:47.495Z,99.99
2023-01-25T05:01:47.464Z,99.99
2023-01-25T05:02:47.690Z,99.99
2023-01-25T05:03:47.435Z,99.99
2023-01-25T05:04:47.405Z,99.99
2023-01-25T05:05:47.384Z,99.99
2023-01-25T05:06:47.390Z,99.99
2023-01-25T05:07:47.373Z,99.99
2023-01-25T05:08:47.344Z,99.99
2023-01-25T05:09:47.348Z,99.99
2023-01-25T05:10:48.277Z,99.99
2023-01-25T05:11:47.732Z,99.99
2023-01-25T05:12:47.329Z,99.99
2023-01-25T05:13:47.323Z,99.99
2023-01-25T05:14:47.277Z,99.99
2023-01-25T05:15:47.297Z,99.99
2023-01-25T05:16:47.474Z,99.99
2023-01-25T05:17:47.252Z,99.99
2023-01-25T05:18:49.128Z,99.99
2023-01-25T05:19:47.232Z,99.99
2023-01-25T05:20:47.254Z,99.99
2023-01-25T05:21:47.224Z,99.99
2023-01-25T05:22:47.705Z,99.99
2023-01-25T05:23:47.308Z,99.99
2023-01-25T05:24:47.166Z,99.99
2023-01-25T05:25:47.173Z,99.99
2023-01-25T05:26:47.211Z,99.99
2023-01-25T05:27:47.145Z,99.99
2023-01-25T05:28:47.234Z,99.99
2023-01-25T05:29:47.132Z,99.99
2023-01-25T05:30:47.600Z,99.99
2023-01-25T05:31:47.711Z,99.99
2023-01-25T05:32:47.105Z,99.99
2023-01-25T05:33:47.709Z,99.99
2023-01-25T05:34:47.095Z,99.99
2023-01-25T05:35:47.045Z,99.99
2023-01-25T05:36:47.087Z,99.99
2023-01-25T05:37:47.051Z,99.99
2023-01-25T05:38:47.022Z,99.99
2023-01-25T05:39:47.009Z,99.99
2023-01-25T05:40:47.013Z,99.99
2023-01-25T05:41:47.020Z,99.99
2023-01-25T05:42:46.973Z,99.99
2023-01-25T05:43:46.954Z,99.99
2023-01-25T05:44:47.902Z,99.99
2023-01-25T05:45:46.979Z,99.99
2023-01-25T05:46:46.973Z,99.99
2023-01-25T05:47:46.984Z,99.99
2023-01-25T05:48:46.907Z,99.99
2023-01-25T05:49:46.924Z,99.99
2023-01-25T05:50:46.873Z,99.99
2023-01-25T05:51:46.903Z,99.99
2023-01-25T05:52:46.853Z,99.99
2023-01-25T05:53:46.873Z,99.99
2023-01-25T05:54:46.839Z,99.99
2023-01-25T05:55:46.834Z,99.99
2023-01-25T05:56:47.114Z,99.99
2023-01-25T05:57:46.827Z,99.99
2023-01-25T05:58:46.813Z,99.99
2023-01-25T05:59:51.289Z,99.99
2023-01-25T06:00:46.801Z,99.99
2023-01-25T06:01:46.793Z,99.99
2023-01-25T06:02:46.905Z,99.99
2023-01-25T06:03:46.814Z,99.99
2023-01-25T06:04:46.724Z,99.99
2023-01-25T06:05:46.722Z,99.99
2023-01-25T06:06:46.714Z,99.99
2023-01-25T06:07:46.690Z,99.99
2023-01-25T06:08:46.689Z,99.99
2023-01-25T06:09:46.702Z,99.99
2023-01-25T06:10:46.651Z,99.99
2023-01-25T06:11:46.705Z,99.99
2023-01-25T06:12:47.255Z,99.99
2023-01-25T06:13:46.657Z,99.99
2023-01-25T06:14:46.628Z,99.99
2023-01-25T06:15:46.647Z,99.99
2023-01-25T06:16:46.642Z,99.99
2023-01-25T06:17:46.589Z,99.99
2023-01-25T06:18:46.782Z,99.99
2023-01-25T06:19:46.568Z,99.99
2023-01-25T06:20:46.861Z,99.99
2023-01-25T06:21:46.547Z,99.99
2023-01-25T06:22:46.531Z,99.99
2023-01-25T06:23:46.582Z,99.99
2023-01-25T06:24:46.498Z,99.99
2023-01-25T06:25:46.498Z,99.99
2023-01-25T06:26:46.498Z,99.99
2023-01-25T06:27:46.489Z,99.99
2023-01-25T06:28:46.789Z,99.99
2023-01-25T06:29:46.487Z,99.99
2023-01-25T06:30:46.540Z,99.99
2023-01-25T06:31:46.467Z,99.99
2023-01-25T06:32:46.409Z,99.99
2023-01-25T06:33:46.409Z,99.99
2023-01-25T06:34:46.441Z,99.99
2023-01-25T06:35:46.391Z,99.99
2023-01-25T06:36:46.382Z,99.99
2023-01-25T06:37:46.370Z,99.99
2023-01-25T06:38:46.370Z,99.99
2023-01-25T06:39:46.353Z,99.99
2023-01-25T06:40:46.332Z,99.99
2023-01-25T06:41:46.336Z,99.99
2023-01-25T06:42:46.310Z,99.99
2023-01-25T06:43:46.598Z,99.99
2023-01-25T06:44:46.278Z,99.99
2023-01-25T06:45:46.270Z,99.99
2023-01-25T06:46:46.314Z,99.99
2023-01-25T06:47:46.254Z,99.99
2023-01-25T06:48:46.259Z,99.99
2023-01-25T06:49:46.247Z,99.99
2023-01-25T06:50:46.233Z,99.99
2023-01-25T06:51:46.206Z,99.99
2023-01-25T06:52:46.197Z,99.99
2023-01-25T06:53:46.203Z,99.99
2023-01-25T06:54:46.169Z,99.99
2023-01-25T06:55:46.175Z,99.99
2023-01-25T06:56:46.167Z,99.99
2023-01-25T06:57:46.139Z,99.99
2023-01-25T06:58:46.151Z,99.99
2023-01-25T06:59:46.119Z,99.99
2023-01-25T07:00:46.138Z,99.99
2023-01-25T07:01:46.150Z,99.99
2023-01-25T07:02:46.139Z,99.99
2023-01-25T07:03:46.098Z,99.99
2023-01-25T07:04:46.057Z,99.99
2023-01-25T07:05:46.099Z,99.99
2023-01-25T07:06:46.092Z,99.99
2023-01-25T07:07:46.055Z,99.99
2023-01-25T07:08:46.019Z,99.99
2023-01-25T07:09:46.014Z,99.99
2023-01-25T07:10:45.997Z,99.99
2023-01-25T07:11:46.018Z,99.99
2023-01-25T07:12:46.003Z,99.99
2023-01-25T07:13:45.993Z,99.99
2023-01-25T07:14:45.979Z,99.99
2023-01-25T07:15:45.976Z,99.99
2023-01-25T07:16:45.947Z,99.99
2023-01-25T07:17:45.938Z,99.99
2023-01-25T07:18:45.924Z,99.99
2023-01-25T07:19:45.939Z,99.99
2023-01-25T07:20:46.038Z,99.99
2023-01-25T07:21:45.916Z,99.99
2023-01-25T07:22:45.874Z,99.99
2023-01-25T07:23:45.887Z,99.99
2023-01-25T07:24:45.846Z,99.99
2023-01-25T07:25:45.835Z,99.99
2023-01-25T07:26:45.828Z,99.99
2023-01-25T07:27:45.835Z,99.99
2023-01-25T07:28:45.812Z,99.99
2023-01-25T07:29:45.775Z,99.99
2023-01-25T07:30:45.788Z,99.99
2023-01-25T07:31:45.878Z,99.99
2023-01-25T07:32:46.005Z,99.99
2023-01-25T07:33:45.755Z,99.99
2023-01-25T07:34:45.747Z,99.99
2023-01-25T07:35:45.730Z,99.99
2023-01-25T07:36:45.827Z,99.99
2023-01-25T07:37:45.729Z,99.99
2023-01-25T07:38:45.691Z,99.99
2023-01-25T07:39:45.682Z,99.99
2023-01-25T07:40:46.367Z,99.99
2023-01-25T07:41:46.374Z,99.99
2023-01-25T07:42:45.635Z,99.99
2023-01-25T07:43:45.660Z,99.99
2023-01-25T07:44:45.627Z,99.99
2023-01-25T07:45:45.618Z,99.99
2023-01-25T07:46:45.607Z,99.99
2023-01-25T07:47:45.630Z,99.99
2023-01-25T07:48:45.587Z,99.99
2023-01-25T07:49:45.582Z,99.99
2023-01-25T07:50:45.556Z,99.99
2023-01-25T07:51:45.557Z,99.99
2023-01-25T07:52:45.656Z,99.99
2023-01-25T07:53:45.527Z,99.99
2023-01-25T07:54:46.812Z,99.99
2023-01-25T07:55:45.533Z,99.99
2023-01-25T07:56:45.504Z,99.99
2023-01-25T07:57:45.795Z,99.99
2023-01-25T07:58:45.471Z,99.99
2023-01-25T07:59:45.471Z,99.99
2023-01-25T08:00:45.449Z,99.99
2023-01-25T08:01:45.436Z,99.99
2023-01-25T08:02:45.460Z,99.99
2023-01-25T08:03:45.428Z,99.99
2023-01-25T08:04:45.511Z,99.99
2023-01-25T08:05:45.445Z,99.99
2023-01-25T08:06:45.403Z,99.99
2023-01-25T08:07:45.535Z,99.99
2023-01-25T08:08:45.376Z,99.99
2023-01-25T08:09:45.388Z,99.99
2023-01-25T08:10:45.335Z,99.99
2023-01-25T08:11:45.326Z,99.99
2023-01-25T08:12:45.337Z,99.99
2023-01-25T08:13:45.313Z,99.99
2023-01-25T08:14:45.300Z,99.99
2023-01-25T08:15:45.471Z,99.99
2023-01-25T08:16:45.290Z,99.99
2023-01-25T08:17:45.261Z,99.99
2023-01-25T08:18:45.241Z,99.99
2023-01-25T08:19:45.324Z,99.99
2023-01-25T08:20:45.219Z,99.99
2023-01-25T08:21:45.255Z,99.99
2023-01-25T08:22:45.201Z,99.99
2023-01-25T08:23:45.259Z,99.99
2023-01-25T08:24:45.413Z,99.99
2023-01-25T08:25:45.180Z,99.99
2023-01-25T08:26:45.185Z,99.99
2023-01-25T08:27:45.180Z,99.99
2023-01-25T08:28:45.127Z,99.99
2023-01-25T08:29:45.121Z,99.99
2023-01-25T08:30:56.434Z,99.99
2023-01-25T08:31:46.426Z,99.99
2023-01-25T08:32:45.080Z,99.99
2023-01-25T08:33:45.084Z,99.99
2023-01-25T08:34:45.061Z,99.99
2023-01-25T08:35:45.052Z,99.99
2023-01-25T08:36:45.060Z,99.99
2023-01-25T08:37:45.293Z,99.99
2023-01-25T08:38:45.012Z,99.99
2023-01-25T08:39:45.040Z,99.99
2023-01-25T08:40:44.992Z,99.99
2023-01-25T08:41:45.001Z,99.99
2023-01-25T08:42:45.003Z,99.99
2023-01-25T08:43:44.983Z,99.99
2023-01-25T08:44:45.819Z,99.99
2023-01-25T08:45:45.390Z,99.99
2023-01-25T08:46:45.020Z,99.99
2023-01-25T08:47:44.931Z,99.99
2023-01-25T08:48:44.909Z,99.99
2023-01-25T08:49:44.908Z,99.99
2023-01-25T08:50:44.883Z,99.99
2023-01-25T08:51:44.882Z,99.99
2023-01-25T08:52:44.877Z,99.99
2023-01-25T08:53:44.878Z,99.99
2023-01-25T08:54:44.878Z,99.99
2023-01-25T08:55:44.844Z,99.99
2023-01-25T08:56:44.833Z,99.99
2023-01-25T08:57:44.818Z,99.99
2023-01-25T08:58:44.791Z,99.99
2023-01-25T08:59:44.813Z,99.99
2023-01-25T09:00:44.786Z,99.99
2023-01-25T09:01:44.778Z,99.99
2023-01-25T09:02:44.790Z,99.99
2023-01-25T09:03:44.861Z,99.99
2023-01-25T09:04:44.737Z,99.99
2023-01-25T09:05:44.729Z,99.99
2023-01-25T09:06:44.710Z,99.99
2023-01-25T09:07:44.738Z,99.99
2023-01-25T09:08:44.735Z,99.99
2023-01-25T09:09:44.678Z,99.99
2023-01-25T09:10:44.671Z,99.99
2023-01-25T09:11:44.652Z,99.99
2023-01-25T09:12:44.662Z,99.99
2023-01-25T09:13:44.655Z,99.99
2023-01-25T09:14:44.874Z,99.99
2023-01-25T09:15:44.627Z,99.99
2023-01-25T09:16:44.609Z,99.99
2023-01-25T09:17:44.592Z,99.99
2023-01-25T09:18:44.628Z,99.99
2023-01-25T09:19:44.610Z,99.99
2023-01-25T09:20:44.559Z,99.99
2023-01-25T09:21:44.563Z,99.99
2023-01-25T09:22:44.540Z,99.99
2023-01-25T09:23:51.203Z,99.99
2023-01-25T09:24:45.576Z,99.99
2023-01-25T09:25:44.494Z,99.99
2023-01-25T09:26:52.788Z,99.99
2023-01-25T09:27:45.489Z,99.99
2023-01-25T09:28:44.467Z,99.99
2023-01-25T09:30:00.005Z,99.99
2023-01-25T09:30:48.797Z,99.99
2023-01-25T09:31:45.615Z,99.99
2023-01-25T09:32:44.503Z,99.99
2023-01-25T09:33:44.397Z,99.99
2023-01-25T09:34:44.417Z,99.99
2023-01-25T09:35:44.388Z,99.99
2023-01-25T09:36:44.393Z,99.99
2023-01-25T09:37:44.386Z,99.99
2023-01-25T09:38:44.358Z,99.99
2023-01-25T09:39:44.349Z,99.99
2023-01-25T09:40:44.609Z,99.99
2023-01-25T09:41:44.317Z,99.99
2023-01-25T09:42:44.322Z,99.99
2023-01-25T09:43:44.291Z,99.99
2023-01-25T09:44:44.312Z,99.99
2023-01-25T09:45:44.286Z,99.99
2023-01-25T09:46:44.281Z,99.99
2023-01-25T09:47:44.267Z,99.99
2023-01-25T09:48:44.247Z,99.99
2023-01-25T09:49:44.232Z,99.99
2023-01-25T09:50:44.238Z,99.99
2023-01-25T09:51:44.239Z,99.99
2023-01-25T09:52:44.217Z,99.99
2023-01-25T09:53:44.211Z,99.99
2023-01-25T09:54:47.610Z,99.99
2023-01-25T09:55:44.205Z,99.99
2023-01-25T09:56:44.167Z,99.99
2023-01-25T09:57:44.146Z,99.99
2023-01-25T09:58:44.146Z,99.99
2023-01-25T09:59:44.116Z,99.99
2023-01-25T10:00:44.126Z,99.99
2023-01-25T10:01:44.367Z,99.99
2023-01-25T10:02:44.174Z,99.99
2023-01-25T10:03:44.081Z,99.99
2023-01-25T10:04:44.065Z,99.99
2023-01-25T10:05:44.073Z,99.99
2023-01-25T10:06:54.996Z,99.99
2023-01-25T10:07:45.042Z,99.99
2023-01-25T10:08:44.016Z,99.99
2023-01-25T10:09:44.014Z,99.99
2023-01-25T10:10:44.049Z,99.99
2023-01-25T10:11:45.372Z,99.99
2023-01-25T10:12:43.982Z,99.99
2023-01-25T10:13:44.921Z,99.99
2023-01-25T10:14:43.956Z,99.99
2023-01-25T10:15:44.007Z,99.99
2023-01-25T10:16:44.016Z,99.99
2023-01-25T10:17:43.929Z,99.99
2023-01-25T10:18:43.915Z,99.99
2023-01-25T10:19:43.895Z,99.99
2023-01-25T10:20:43.915Z,99.99
2023-01-25T10:21:43.874Z,99.99
2023-01-25T10:22:44.017Z,99.99
2023-01-25T10:23:43.877Z,99.99
2023-01-25T10:24:43.910Z,99.99
2023-01-25T10:25:43.847Z,99.99
2023-01-25T10:26:43.875Z,99.99
2023-01-25T10:27:43.817Z,99.99
2023-01-25T10:28:43.935Z,99.99
2023-01-25T10:29:43.770Z,99.99
2023-01-25T10:30:43.864Z,99.99
2023-01-25T10:31:43.802Z,99.99
2023-01-25T10:32:55.421Z,99.99
2023-01-25T10:33:44.745Z,99.99
2023-01-25T10:34:55.433Z,99.99
2023-01-25T10:35:47.017Z,99.99
2023-01-25T10:36:43.719Z,99.99
2023-01-25T10:37:43.695Z,99.99
2023-01-25T10:38:43.734Z,99.99
2023-01-25T10:39:43.675Z,99.99
2023-01-25T10:40:43.664Z,99.99
2023-01-25T10:41:43.663Z,99.99
2023-01-25T10:42:43.643Z,99.99
2023-01-25T10:43:43.652Z,99.99
2023-01-25T10:44:43.640Z,99.99
2023-01-25T10:45:43.599Z,99.99
2023-01-25T10:46:43.652Z,99.99
2023-01-25T10:47:43.592Z,99.99
2023-01-25T10:48:43.591Z,99.99
2023-01-25T10:49:43.597Z,99.99
2023-01-25T10:50:43.566Z,99.99
2023-01-25T10:51:43.537Z,99.99
2023-01-25T10:52:43.540Z,99.99
2023-01-25T10:53:43.525Z,99.99
2023-01-25T10:54:43.554Z,99.99
2023-01-25T10:55:43.491Z,99.99
2023-01-25T10:56:43.503Z,99.99
2023-01-25T10:57:43.480Z,99.99
2023-01-25T10:58:43.490Z,99.99
2023-01-25T10:59:43.459Z,99.99
2023-01-25T11:00:43.459Z,99.99
2023-01-25T11:01:43.514Z,99.99
2023-01-25T11:02:43.472Z,99.99
2023-01-25T11:03:43.414Z,99.99
2023-01-25T11:04:44.378Z,99.99
2023-01-25T11:05:43.393Z,99.99
2023-01-25T11:06:43.404Z,99.99
2023-01-25T11:07:43.377Z,99.99
2023-01-25T11:08:43.426Z,99.99
2023-01-25T11:09:43.348Z,99.99
2023-01-25T11:10:43.372Z,99.99
2023-01-25T11:11:43.328Z,99.99
2023-01-25T11:12:43.324Z,99.99
2023-01-25T11:13:43.299Z,99.99
2023-01-25T11:14:43.292Z,99.99
2023-01-25T11:15:43.349Z,99.99
2023-01-25T11:16:43.300Z,99.99
2023-01-25T11:17:43.253Z,99.99
2023-01-25T11:18:43.244Z,99.99
2023-01-25T11:19:43.230Z,99.99
2023-01-25T11:20:43.232Z,99.99
2023-01-25T11:21:43.488Z,99.99
2023-01-25T11:22:43.213Z,99.99
2023-01-25T11:23:43.201Z,99.99
2023-01-25T11:24:43.191Z,99.99
2023-01-25T11:25:43.158Z,99.99
2023-01-25T11:26:43.167Z,99.99
2023-01-25T11:27:43.180Z,99.99
2023-01-25T11:28:43.160Z,99.99
2023-01-25T11:29:43.117Z,99.99
2023-01-25T11:30:43.151Z,99.99
2023-01-25T11:31:43.202Z,99.99
2023-01-25T11:32:43.100Z,99.99
2023-01-25T11:33:43.102Z,99.99
2023-01-25T11:34:43.087Z,99.99
2023-01-25T11:35:43.068Z,99.99
2023-01-25T11:36:43.047Z,99.99
2023-01-25T11:37:43.045Z,99.99
2023-01-25T11:38:43.036Z,99.99
2023-01-25T11:39:43.038Z,99.99
2023-01-25T11:40:43.016Z,99.99
2023-01-25T11:41:42.995Z,99.99
2023-01-25T11:42:43.038Z,99.99
2023-01-25T11:43:42.976Z,99.99
2023-01-25T11:44:42.960Z,99.99
2023-01-25T11:45:43.664Z,99.99
2023-01-25T11:46:42.962Z,99.99
2023-01-25T11:47:42.992Z,99.99
2023-01-25T11:48:42.920Z,99.99
2023-01-25T11:49:42.896Z,99.99
2023-01-25T11:50:42.888Z,99.99
2023-01-25T11:51:42.882Z,99.99
2023-01-25T11:52:42.913Z,99.99
2023-01-25T11:53:42.867Z,99.99
2023-01-25T11:54:43.858Z,99.99
2023-01-25T11:55:42.836Z,99.99
2023-01-25T11:56:42.824Z,99.99
2023-01-25T11:57:44.955Z,99.99
2023-01-25T11:58:42.806Z,99.99
2023-01-25T11:59:42.835Z,99.99
2023-01-25T12:00:42.806Z,99.99
2023-01-25T12:01:42.797Z,99.99
2023-01-25T12:02:42.834Z,99.99
2023-01-25T12:03:42.784Z,99.99
2023-01-25T12:04:42.772Z,99.99
2023-01-25T12:05:42.745Z,99.99
2023-01-25T12:06:42.729Z,99.99
2023-01-25T12:07:42.705Z,99.99
2023-01-25T12:08:42.697Z,99.99
2023-01-25T12:09:42.696Z,99.99
2023-01-25T12:10:42.685Z,99.99
2023-01-25T12:11:42.656Z,99.99
2023-01-25T12:12:42.653Z,99.99
2023-01-25T12:13:42.647Z,99.99
2023-01-25T12:14:42.636Z,99.99
2023-01-25T12:15:42.646Z,99.99
2023-01-25T12:16:42.613Z,99.99
2023-01-25T12:17:42.609Z,99.99
2023-01-25T12:18:42.616Z,99.99
2023-01-25T12:19:42.566Z,99.99
2023-01-25T12:20:42.580Z,99.99
2023-01-25T12:21:42.555Z,99.99
2023-01-25T12:22:42.545Z,99.99
2023-01-25T12:23:42.528Z,99.99
2023-01-25T12:24:43.283Z,99.99
2023-01-25T12:25:42.523Z,99.99
2023-01-25T12:26:42.498Z,99.99
2023-01-25T12:27:42.486Z,99.99
2023-01-25T12:28:42.489Z,99.99
2023-01-25T12:29:42.464Z,99.99
2023-01-25T12:30:42.483Z,99.99
2023-01-25T12:31:42.509Z,99.99
2023-01-25T12:32:42.454Z,99.99
2023-01-25T12:33:42.413Z,99.99
2023-01-25T12:34:42.405Z,99.99
2023-01-25T12:35:42.417Z,99.99
2023-01-25T12:36:42.403Z,99.99
2023-01-25T12:37:42.370Z,99.99
2023-01-25T12:38:42.366Z,99.99
2023-01-25T12:39:42.404Z,99.99
2023-01-25T12:40:42.342Z,99.99
2023-01-25T12:41:42.334Z,99.99
2023-01-25T12:42:42.761Z,99.99
2023-01-25T12:43:42.301Z,99.99
2023-01-25T12:44:42.302Z,99.99
2023-01-25T12:45:42.297Z,99.99
2023-01-25T12:46:42.330Z,99.99
2023-01-25T12:47:42.261Z,99.99
2023-01-25T12:48:42.249Z,99.99
2023-01-25T12:49:42.260Z,99.99
2023-01-25T12:50:42.259Z,99.99
2023-01-25T12:51:42.223Z,99.99
2023-01-25T12:52:42.220Z,99.99